Terminal Aerodrome Forecast
Issued by NWS Sioux Falls, SD

Home | Current Version | Previous Version | Graphics & Text | Print | Product List | Glossary Off
Versions: 1 2 3 4 5 6 7 8 9 10 11 12 13

000
FTUS43 KFSD 151123
TAFHON
TAF
KHON 151123Z 1512/1612 15015G22KT P6SM SKC
     FM151600 16022G30KT P6SM SCT250
     FM152200 14018G25KT P6SM SCT040
     FM160100 14014KT P6SM OVC035
     FM160900 14008KT P6SM OVC025=

USA.gov is the U.S. government's official web portal to all federal, state and local government web resources and services.